createdAt,value
2023-02-05T00:01:01.833Z,60.82
2023-02-05T00:03:30.320Z,60.83
2023-02-05T00:05:58.432Z,60.90
2023-02-05T00:08:27.745Z,60.89
2023-02-05T00:11:00.080Z,60.94
2023-02-05T00:13:28.646Z,61.04
2023-02-05T00:15:56.814Z,61.09
2023-02-05T00:18:24.961Z,61.14
2023-02-05T00:20:53.102Z,61.44
2023-02-05T00:23:21.176Z,61.35
2023-02-05T00:25:49.459Z,61.50
2023-02-05T00:28:17.556Z,61.54
2023-02-05T00:30:46.354Z,61.68
2023-02-05T00:33:14.736Z,61.87
2023-02-05T00:35:43.740Z,61.88
2023-02-05T00:38:12.667Z,62.01
2023-02-05T00:40:41.282Z,62.08
2023-02-05T00:43:11.184Z,62.05
2023-02-05T00:45:39.276Z,62.25
2023-02-05T00:48:08.029Z,62.21
2023-02-05T00:50:36.423Z,62.12
2023-02-05T00:53:06.895Z,62.23
2023-02-05T00:55:36.457Z,62.18
2023-02-05T00:58:04.601Z,62.20
2023-02-05T01:00:34.106Z,62.18
2023-02-05T01:03:02.458Z,62.13
2023-02-05T01:05:30.931Z,62.23
2023-02-05T01:07:59.485Z,62.35
2023-02-05T01:10:27.924Z,62.33
2023-02-05T01:12:55.985Z,62.41
2023-02-05T01:15:24.452Z,62.47
2023-02-05T01:17:52.680Z,62.42
2023-02-05T01:20:21.929Z,62.57
2023-02-05T01:22:50.125Z,62.48
2023-02-05T01:25:19.129Z,62.38
2023-02-05T01:27:47.246Z,62.40
2023-02-05T01:30:15.686Z,62.39
2023-02-05T01:32:43.806Z,62.41
2023-02-05T01:35:12.142Z,62.52
2023-02-05T01:37:40.553Z,62.54
2023-02-05T01:40:12.243Z,62.36
2023-02-05T01:42:40.551Z,62.43
2023-02-05T01:45:25.214Z,62.63
2023-02-05T01:47:54.886Z,62.71
2023-02-05T01:50:27.121Z,62.65
2023-02-05T01:52:56.006Z,62.77
2023-02-05T01:55:24.408Z,62.66
2023-02-05T01:57:52.709Z,62.60
2023-02-05T02:00:22.044Z,62.61
2023-02-05T02:02:50.286Z,62.67
2023-02-05T02:05:19.444Z,62.62
2023-02-05T02:07:47.594Z,62.71
2023-02-05T02:10:15.803Z,62.67
2023-02-05T02:12:44.140Z,62.82
2023-02-05T02:15:15.243Z,62.90
2023-02-05T02:17:45.792Z,62.91
2023-02-05T02:20:19.297Z,62.94
2023-02-05T02:23:13.005Z,63.02
2023-02-05T02:25:59.703Z,62.92
2023-02-05T02:28:49.099Z,62.80
2023-02-05T02:31:28.010Z,62.86
2023-02-05T02:34:33.418Z,62.84
2023-02-05T02:37:10.110Z,63.00
2023-02-05T02:40:00.833Z,62.99
2023-02-05T02:42:33.235Z,63.01
2023-02-05T02:45:10.679Z,62.95
2023-02-05T02:47:46.842Z,62.95
2023-02-05T02:50:22.158Z,62.94
2023-02-05T02:52:51.166Z,62.93
2023-02-05T02:55:19.900Z,62.92
2023-02-05T02:57:49.477Z,63.09
2023-02-05T03:00:27.868Z,63.07
2023-02-05T03:03:00.988Z,63.06
2023-02-05T03:05:29.526Z,63.01
2023-02-05T03:08:01.134Z,63.02
2023-02-05T03:10:37.125Z,62.92
2023-02-05T03:13:11.358Z,63.07
2023-02-05T03:15:42.152Z,63.18
2023-02-05T03:18:11.174Z,62.99
2023-02-05T03:20:46.471Z,63.22
2023-02-05T03:23:17.152Z,63.23
2023-02-05T03:25:45.620Z,62.99
2023-02-05T03:28:14.518Z,63.02
2023-02-05T03:30:48.339Z,63.05
2023-02-05T03:33:28.139Z,63.04
2023-02-05T03:36:08.770Z,63.08
2023-02-05T03:38:56.366Z,63.12
2023-02-05T03:41:58.460Z,63.24
2023-02-05T03:45:22.217Z,63.01
2023-02-05T03:48:09.705Z,63.18
2023-02-05T03:51:01.108Z,63.20
2023-02-05T03:53:44.583Z,63.27
2023-02-05T03:56:32.621Z,63.41
2023-02-05T03:59:01.317Z,63.45
2023-02-05T04:01:29.900Z,63.50
2023-02-05T04:03:58.241Z,63.64
2023-02-05T04:06:27.643Z,63.52
2023-02-05T04:08:55.960Z,63.41
2023-02-05T04:11:24.294Z,63.46
2023-02-05T04:13:53.122Z,63.61
2023-02-05T04:16:21.536Z,63.66
2023-02-05T04:18:50.153Z,63.68
2023-02-05T04:21:18.477Z,63.67
2023-02-05T04:23:46.628Z,63.64
2023-02-05T04:26:15.227Z,63.66
2023-02-05T04:28:49.051Z,63.76
2023-02-05T04:31:17.719Z,63.76
2023-02-05T04:33:46.365Z,63.81
2023-02-05T04:36:15.475Z,63.88
2023-02-05T04:38:43.983Z,63.71
2023-02-05T04:41:12.240Z,63.81
2023-02-05T04:43:40.805Z,63.75
2023-02-05T04:46:09.364Z,63.77
2023-02-05T04:48:38.609Z,63.83
2023-02-05T04:51:08.336Z,63.88
2023-02-05T04:53:37.026Z,63.96
2023-02-05T04:56:15.741Z,63.98
2023-02-05T04:58:44.089Z,64.02
2023-02-05T05:01:17.140Z,64.00
2023-02-05T05:03:45.587Z,64.09
2023-02-05T05:06:14.054Z,64.08
2023-02-05T05:08:42.436Z,64.19
2023-02-05T05:11:12.630Z,64.15
2023-02-05T05:13:40.788Z,64.19
2023-02-05T05:16:09.998Z,64.35
2023-02-05T05:18:39.232Z,64.32
2023-02-05T05:21:07.486Z,64.30
2023-02-05T05:23:36.688Z,64.25
2023-02-05T05:26:08.920Z,64.45
2023-02-05T05:28:37.429Z,64.29
2023-02-05T05:31:08.294Z,64.56
2023-02-05T05:33:37.920Z,64.58
2023-02-05T05:36:07.158Z,64.60
2023-02-05T05:38:36.145Z,64.62
2023-02-05T05:41:23.390Z,64.58
2023-02-05T05:43:55.224Z,64.60
2023-02-05T05:46:25.094Z,64.66
2023-02-05T05:48:54.976Z,64.55
2023-02-05T05:51:23.764Z,64.65
2023-02-05T05:53:52.036Z,64.77
2023-02-05T05:56:20.424Z,64.78
2023-02-05T05:58:49.369Z,64.88
2023-02-05T06:01:19.194Z,64.81
2023-02-05T06:03:47.433Z,64.92
2023-02-05T06:06:15.580Z,64.96
2023-02-05T06:08:45.105Z,65.10
2023-02-05T06:11:13.453Z,65.23
2023-02-05T06:13:42.336Z,65.26
2023-02-05T06:16:14.103Z,65.16
2023-02-05T06:18:50.660Z,65.30
2023-02-05T06:21:22.913Z,65.24
2023-02-05T06:26:43.570Z,65.27
2023-02-05T06:29:13.724Z,65.37
2023-02-05T06:31:47.247Z,65.46
2023-02-05T06:34:18.992Z,65.64
2023-02-05T06:36:53.123Z,65.75
2023-02-05T06:39:33.642Z,65.77
2023-02-05T06:42:08.581Z,65.77
2023-02-05T06:44:48.986Z,65.82
2023-02-05T06:47:33.969Z,65.76
2023-02-05T06:50:20.393Z,65.81
2023-02-05T06:52:51.979Z,65.80
2023-02-05T06:55:31.724Z,65.89
2023-02-05T06:58:05.295Z,66.02
2023-02-05T07:00:40.851Z,66.07
2023-02-05T07:03:09.262Z,65.99
2023-02-05T07:05:40.041Z,66.00
2023-02-05T07:08:12.962Z,65.95
2023-02-05T07:13:39.917Z,65.95
2023-02-05T07:16:19.750Z,65.90
2023-02-05T07:18:49.474Z,66.00
2023-02-05T07:21:29.853Z,66.04
2023-02-05T07:24:03.897Z,65.82
2023-02-05T07:26:41.440Z,65.84
2023-02-05T07:29:14.712Z,65.82
2023-02-05T07:31:43.076Z,65.84
2023-02-05T07:34:13.546Z,65.88
2023-02-05T07:36:53.154Z,65.86
2023-02-05T07:39:25.475Z,65.94
2023-02-05T07:41:54.114Z,65.93
2023-02-05T07:44:34.779Z,66.03
2023-02-05T07:47:02.920Z,66.02
2023-02-05T07:49:31.226Z,66.09
2023-02-05T07:52:01.458Z,65.90
2023-02-05T07:54:29.901Z,65.99
2023-02-05T07:57:00.257Z,65.90
2023-02-05T07:59:28.470Z,65.85
2023-02-05T08:01:56.545Z,65.86
2023-02-05T08:04:24.806Z,65.77
2023-02-05T08:06:53.213Z,65.60
2023-02-05T08:09:21.334Z,65.30
2023-02-05T08:11:49.410Z,65.34
2023-02-05T08:14:17.978Z,65.55
2023-02-05T08:16:46.128Z,65.51
2023-02-05T08:19:18.070Z,65.50
2023-02-05T08:21:46.232Z,65.28
2023-02-05T08:24:14.536Z,64.95
2023-02-05T08:26:43.133Z,64.91
2023-02-05T08:29:11.829Z,65.04
2023-02-05T08:31:40.326Z,64.93
2023-02-05T08:34:08.384Z,64.91
2023-02-05T08:36:37.702Z,64.76
2023-02-05T08:39:05.870Z,64.70
2023-02-05T08:41:36.999Z,64.31
2023-02-05T08:44:05.456Z,64.24
2023-02-05T08:46:48.746Z,63.83
2023-02-05T08:49:17.731Z,63.71
2023-02-05T08:51:46.240Z,63.68
2023-02-05T08:54:15.376Z,64.06
2023-02-05T08:56:44.823Z,65.08
2023-02-05T08:59:12.937Z,65.47
2023-02-05T09:01:41.283Z,65.65
2023-02-05T09:04:16.498Z,65.63
2023-02-05T09:06:44.898Z,65.57
2023-02-05T09:09:13.337Z,65.43
2023-02-05T09:11:41.910Z,65.33
2023-02-05T09:14:10.282Z,65.17
2023-02-05T09:16:39.076Z,65.12
2023-02-05T09:19:07.459Z,65.05
2023-02-05T09:21:35.614Z,65.42
2023-02-05T09:24:04.182Z,65.67
2023-02-05T09:26:34.258Z,65.79
2023-02-05T09:29:03.173Z,65.81
2023-02-05T09:31:31.704Z,65.73
2023-02-05T09:34:02.492Z,65.62
2023-02-05T09:36:31.072Z,65.23
2023-02-05T09:39:13.397Z,65.09
2023-02-05T09:41:57.386Z,65.03
2023-02-05T09:44:25.520Z,65.25
2023-02-05T09:47:02.918Z,65.04
2023-02-05T09:49:52.134Z,64.59
2023-02-05T09:52:22.349Z,64.46
2023-02-05T09:55:19.476Z,64.35
2023-02-05T09:57:48.320Z,64.33
2023-02-05T10:00:28.831Z,64.52
2023-02-05T10:03:25.467Z,64.40
2023-02-05T10:06:12.349Z,64.63
2023-02-05T10:08:46.744Z,65.47
2023-02-05T10:11:27.370Z,65.47
2023-02-05T10:14:07.663Z,65.74
2023-02-05T10:16:48.918Z,65.70
2023-02-05T10:19:37.790Z,65.67
2023-02-05T10:22:18.442Z,65.42
2023-02-05T10:25:11.382Z,65.58
2023-02-05T10:27:49.203Z,65.78
2023-02-05T10:30:30.929Z,65.71
2023-02-05T10:33:18.974Z,65.80
2023-02-05T10:36:01.662Z,66.01
2023-02-05T10:38:32.156Z,66.06
2023-02-05T10:41:28.770Z,67.30
2023-02-05T10:44:03.958Z,68.39
2023-02-05T10:46:37.960Z,68.93
2023-02-05T10:49:39.027Z,69.21
2023-02-05T10:52:10.903Z,68.97
2023-02-05T10:54:39.400Z,69.14
2023-02-05T10:57:30.401Z,69.30
2023-02-05T11:00:14.377Z,69.06
2023-02-05T11:02:46.481Z,69.03
2023-02-05T11:05:37.181Z,68.88
2023-02-05T11:08:05.572Z,68.33
2023-02-05T11:10:34.993Z,68.26
2023-02-05T11:13:19.265Z,68.03
2023-02-05T11:16:03.514Z,67.66
2023-02-05T11:18:59.659Z,67.45
2023-02-05T11:21:50.128Z,67.29
2023-02-05T11:24:28.909Z,67.25
2023-02-05T11:27:15.577Z,67.24
2023-02-05T11:29:43.856Z,67.13
2023-02-05T11:32:36.357Z,66.97
2023-02-05T11:35:18.420Z,66.73
2023-02-05T11:37:48.768Z,66.91
2023-02-05T11:40:22.643Z,67.10
2023-02-05T11:43:01.038Z,67.14
2023-02-05T11:45:29.979Z,67.20
2023-02-05T11:48:01.299Z,67.13
2023-02-05T11:50:30.135Z,66.97
2023-02-05T11:53:08.449Z,66.97
2023-02-05T11:55:36.572Z,67.04
2023-02-05T11:58:06.517Z,67.13
2023-02-05T12:00:35.595Z,67.35
2023-02-05T12:03:16.476Z,67.44
2023-02-05T12:05:49.922Z,67.28
2023-02-05T12:08:27.286Z,67.06
2023-02-05T12:11:08.742Z,67.12
2023-02-05T12:13:55.846Z,67.56
2023-02-05T12:16:41.819Z,67.82
2023-02-05T12:19:24.796Z,67.99
2023-02-05T12:22:27.010Z,67.59
2023-02-05T12:25:17.140Z,67.75
2023-02-05T12:28:01.637Z,67.76
2023-02-05T12:30:45.070Z,67.81
2023-02-05T12:33:28.972Z,67.71
2023-02-05T12:36:15.414Z,67.72
2023-02-05T12:39:13.421Z,67.80
2023-02-05T12:41:45.200Z,67.61
2023-02-05T12:44:52.206Z,67.74
2023-02-05T12:48:04.644Z,67.81
2023-02-05T12:50:59.041Z,67.85
2023-02-05T12:53:49.032Z,68.09
2023-02-05T12:56:49.886Z,68.51
2023-02-05T12:59:24.192Z,68.81
2023-02-05T13:01:59.049Z,68.97
2023-02-05T13:04:35.069Z,69.11
2023-02-05T13:07:12.075Z,69.09
2023-02-05T13:09:43.299Z,69.33
2023-02-05T13:12:14.176Z,69.26
2023-02-05T13:14:45.241Z,69.51
2023-02-05T13:17:20.497Z,69.89
2023-02-05T13:19:55.997Z,70.27
2023-02-05T13:22:48.975Z,70.57
2023-02-05T13:25:44.824Z,70.63
2023-02-05T13:28:40.973Z,70.67
2023-02-05T13:31:21.193Z,70.62
2023-02-05T13:33:49.743Z,70.60
2023-02-05T13:36:24.271Z,70.34
2023-02-05T13:39:16.264Z,70.45
2023-02-05T13:42:03.308Z,70.67
2023-02-05T13:45:05.768Z,70.63
2023-02-05T13:47:56.885Z,70.47
2023-02-05T13:50:52.891Z,70.27
2023-02-05T13:53:31.276Z,70.23
2023-02-05T13:56:14.980Z,70.71
2023-02-05T13:58:49.334Z,72.96
2023-02-05T14:01:24.606Z,74.16
2023-02-05T14:03:55.967Z,74.78
2023-02-05T14:06:27.762Z,75.18
2023-02-05T14:09:08.151Z,75.49
2023-02-05T14:11:51.823Z,75.83
2023-02-05T14:14:27.483Z,76.17
2023-02-05T14:16:57.338Z,76.37
2023-02-05T14:19:31.808Z,76.47
2023-02-05T14:22:07.353Z,76.47
2023-02-05T14:24:44.099Z,76.48
2023-02-05T14:27:30.674Z,76.41
2023-02-05T14:29:59.702Z,76.52
2023-02-05T14:32:29.542Z,76.59
2023-02-05T14:35:38.270Z,76.74
2023-02-05T14:38:26.206Z,77.21
2023-02-05T14:41:03.509Z,77.74
2023-02-05T14:43:36.244Z,78.33
2023-02-05T14:46:06.684Z,78.62
2023-02-05T14:48:36.931Z,78.81
2023-02-05T14:51:26.533Z,79.31
2023-02-05T14:54:18.693Z,79.70
2023-02-05T14:56:48.945Z,79.97
2023-02-05T14:59:21.636Z,80.37
2023-02-05T15:01:54.446Z,80.62
2023-02-05T15:04:25.370Z,80.81
2023-02-05T15:06:53.512Z,80.93
2023-02-05T15:09:26.268Z,81.12
2023-02-05T15:12:09.208Z,81.19
2023-02-05T15:14:44.023Z,81.43
2023-02-05T15:17:14.294Z,81.61
2023-02-05T15:19:44.853Z,81.79
2023-02-05T15:22:24.356Z,82.08
2023-02-05T15:24:53.782Z,82.13
2023-02-05T15:27:24.748Z,82.15
2023-02-05T15:29:57.227Z,82.29
2023-02-05T15:32:31.545Z,82.33
2023-02-05T15:35:13.279Z,82.23
2023-02-05T15:37:56.204Z,82.45
2023-02-05T15:40:27.181Z,82.30
2023-02-05T15:43:00.240Z,82.26
2023-02-05T15:45:29.777Z,82.50
2023-02-05T15:47:58.014Z,82.48
2023-02-05T15:50:26.936Z,82.52
2023-02-05T15:52:55.061Z,82.65
2023-02-05T15:55:24.806Z,82.73
2023-02-05T15:57:52.921Z,82.77
2023-02-05T16:00:23.734Z,82.64
2023-02-05T16:03:00.218Z,82.67
2023-02-05T16:05:29.825Z,82.41
2023-02-05T16:08:00.835Z,82.29
2023-02-05T16:10:30.692Z,82.37
2023-02-05T16:13:01.808Z,82.31
2023-02-05T16:16:15.484Z,82.52
2023-02-05T16:18:54.551Z,82.42
2023-02-05T16:21:22.859Z,82.48
2023-02-05T16:23:57.167Z,82.39
2023-02-05T16:26:31.161Z,82.44
2023-02-05T16:29:11.703Z,82.48
2023-02-05T16:31:57.837Z,82.50
2023-02-05T16:34:26.222Z,82.35
2023-02-05T16:36:58.152Z,82.30
2023-02-05T16:39:28.904Z,82.36
2023-02-05T16:42:08.574Z,82.39
2023-02-05T16:44:38.806Z,82.33
2023-02-05T16:47:15.247Z,82.08
2023-02-05T16:49:44.741Z,82.03
2023-02-05T16:52:33.434Z,82.20
2023-02-05T16:55:24.903Z,82.21
2023-02-05T16:57:53.863Z,81.87
2023-02-05T17:00:25.299Z,81.59
2023-02-05T17:02:55.813Z,81.65
2023-02-05T17:05:25.394Z,81.40
2023-02-05T17:08:01.014Z,81.35
2023-02-05T17:10:29.414Z,81.46
2023-02-05T17:13:03.426Z,81.18
2023-02-05T17:15:33.755Z,80.85
2023-02-05T17:18:20.576Z,80.87
2023-02-05T17:20:48.944Z,80.37
2023-02-05T17:23:17.829Z,80.01
2023-02-05T17:25:55.678Z,80.04
2023-02-05T17:28:26.109Z,79.37
2023-02-05T17:30:57.790Z,78.39
2023-02-05T17:33:28.076Z,78.08
2023-02-05T17:35:56.581Z,77.87
2023-02-05T17:38:24.815Z,77.67
2023-02-05T17:41:12.876Z,77.20
2023-02-05T17:43:41.430Z,76.64
2023-02-05T17:46:14.375Z,75.89
2023-02-05T17:48:44.766Z,75.51
2023-02-05T17:51:20.586Z,74.65
2023-02-05T17:53:49.566Z,73.40
2023-02-05T17:56:19.304Z,72.28
2023-02-05T17:58:51.104Z,71.73
2023-02-05T18:01:19.401Z,71.11
2023-02-05T18:03:47.931Z,70.31
2023-02-05T18:06:17.352Z,69.38
2023-02-05T18:08:45.412Z,68.22
2023-02-05T18:11:13.433Z,68.37
2023-02-05T18:13:42.282Z,68.12
2023-02-05T18:16:12.419Z,67.73
2023-02-05T18:18:41.013Z,67.72
2023-02-05T18:21:09.424Z,67.25
2023-02-05T18:23:41.388Z,67.06
2023-02-05T18:26:10.028Z,66.88
2023-02-05T18:28:38.593Z,66.98
2023-02-05T18:31:07.797Z,66.84
2023-02-05T18:33:37.149Z,66.83
2023-02-05T18:36:09.455Z,66.80
2023-02-05T18:38:38.281Z,66.74
2023-02-05T18:41:12.519Z,66.71
2023-02-05T18:43:40.878Z,66.55
2023-02-05T18:46:09.624Z,66.37
2023-02-05T18:48:38.349Z,66.28
2023-02-05T18:51:11.034Z,66.32
2023-02-05T18:53:43.440Z,66.31
2023-02-05T18:56:25.265Z,66.26
2023-02-05T18:59:04.194Z,66.27
2023-02-05T19:01:36.209Z,66.03
2023-02-05T19:04:13.154Z,65.79
2023-02-05T19:06:42.931Z,65.57
2023-02-05T19:09:11.385Z,65.52
2023-02-05T19:11:41.573Z,65.52
2023-02-05T19:14:13.960Z,65.49
2023-02-05T19:16:42.847Z,65.37
2023-02-05T19:19:15.644Z,65.29
2023-02-05T19:21:44.980Z,65.20
2023-02-05T19:24:13.778Z,65.22
2023-02-05T19:26:44.194Z,64.89
2023-02-05T19:29:14.277Z,64.86
2023-02-05T19:31:42.556Z,64.80
2023-02-05T19:34:11.790Z,64.81
2023-02-05T19:36:40.954Z,64.84
2023-02-05T19:39:10.791Z,64.76
2023-02-05T19:41:38.863Z,64.62
2023-02-05T19:44:08.074Z,64.63
2023-02-05T19:46:38.249Z,64.70
2023-02-05T19:49:11.662Z,64.51
2023-02-05T19:51:42.109Z,64.38
2023-02-05T19:54:16.407Z,64.42
2023-02-05T19:56:45.066Z,64.36
2023-02-05T19:59:18.477Z,64.31
2023-02-05T20:01:47.824Z,64.22
2023-02-05T20:04:18.335Z,64.25
2023-02-05T20:06:46.615Z,64.21
2023-02-05T20:09:18.007Z,64.17
2023-02-05T20:11:47.902Z,64.08
2023-02-05T20:14:20.213Z,64.08
2023-02-05T20:16:50.468Z,63.99
2023-02-05T20:19:19.846Z,64.05
2023-02-05T20:21:48.174Z,63.99
2023-02-05T20:24:16.631Z,63.89
2023-02-05T20:26:47.939Z,63.93
2023-02-05T20:29:35.290Z,63.83
2023-02-05T20:32:03.780Z,63.76
2023-02-05T20:34:35.530Z,63.68
2023-02-05T20:37:07.464Z,63.74
2023-02-05T20:39:39.902Z,63.66
2023-02-05T20:42:10.559Z,63.64
2023-02-05T20:44:38.837Z,63.51
2023-02-05T20:47:07.884Z,63.35
2023-02-05T20:49:38.025Z,63.34
2023-02-05T20:52:06.923Z,63.35
2023-02-05T20:54:37.061Z,63.31
2023-02-05T20:57:05.772Z,63.29
2023-02-05T20:59:36.681Z,63.32
2023-02-05T21:02:05.041Z,63.14
2023-02-05T21:04:34.091Z,63.07
2023-02-05T21:07:02.289Z,62.81
2023-02-05T21:09:32.055Z,62.89
2023-02-05T21:12:00.326Z,62.89
2023-02-05T21:14:30.732Z,62.78
2023-02-05T21:16:59.644Z,62.96
2023-02-05T21:19:28.747Z,63.05
2023-02-05T21:21:57.208Z,63.10
2023-02-05T21:24:25.244Z,63.07
2023-02-05T21:26:53.448Z,63.03
2023-02-05T21:29:21.616Z,62.94
2023-02-05T21:31:53.197Z,62.92
2023-02-05T21:34:23.355Z,63.14
2023-02-05T21:36:51.746Z,63.13
2023-02-05T21:39:22.944Z,63.31
2023-02-05T21:41:51.405Z,63.39
2023-02-05T21:44:20.171Z,63.33
2023-02-05T21:46:48.790Z,63.30
2023-02-05T21:49:17.045Z,63.23
2023-02-05T21:51:48.143Z,63.41
2023-02-05T21:54:16.369Z,63.34
2023-02-05T21:56:44.728Z,63.33
2023-02-05T21:59:13.051Z,63.39
2023-02-05T22:01:42.024Z,63.35
2023-02-05T22:04:15.058Z,63.46
2023-02-05T22:06:43.659Z,63.62
2023-02-05T22:09:15.812Z,63.78
2023-02-05T22:11:44.831Z,63.86
2023-02-05T22:14:13.114Z,63.94
2023-02-05T22:16:42.115Z,63.90
2023-02-05T22:19:19.614Z,64.12
2023-02-05T22:21:48.484Z,64.27
2023-02-05T22:24:17.907Z,64.17
2023-02-05T22:26:46.665Z,64.25
2023-02-05T22:29:16.773Z,64.34
2023-02-05T22:31:45.184Z,64.37
2023-02-05T22:34:13.587Z,64.57
2023-02-05T22:36:41.879Z,64.67
2023-02-05T22:39:10.092Z,64.89
2023-02-05T22:41:40.026Z,64.91
2023-02-05T22:44:09.231Z,65.29
2023-02-05T22:46:42.548Z,65.56
2023-02-05T22:49:11.397Z,65.91
2023-02-05T22:51:40.493Z,65.97
2023-02-05T22:54:10.586Z,65.97
2023-02-05T22:56:39.381Z,66.07
2023-02-05T22:59:08.178Z,66.18
2023-02-05T23:01:38.048Z,66.59
2023-02-05T23:04:06.916Z,66.79
2023-02-05T23:06:38.896Z,67.03
2023-02-05T23:09:09.248Z,67.22
2023-02-05T23:11:39.739Z,67.29
2023-02-05T23:14:08.350Z,67.43
2023-02-05T23:16:39.540Z,67.55
2023-02-05T23:19:10.009Z,67.50
2023-02-05T23:21:38.583Z,67.55
2023-02-05T23:24:08.113Z,67.78
2023-02-05T23:26:42.483Z,67.94
2023-02-05T23:29:11.791Z,68.07
2023-02-05T23:31:41.271Z,68.17
2023-02-05T23:34:09.460Z,68.31
2023-02-05T23:36:38.135Z,68.43
2023-02-05T23:39:06.239Z,68.65
2023-02-05T23:41:37.439Z,68.63
2023-02-05T23:44:14.213Z,68.82
2023-02-05T23:46:43.136Z,68.80
2023-02-05T23:49:12.094Z,69.00
2023-02-05T23:51:40.378Z,69.16
2023-02-05T23:54:09.926Z,69.15
2023-02-05T23:56:40.109Z,69.40
2023-02-05T23:59:08.777Z,69.49
